Airbus A320-200(JA8393)

737のライバル?!もう一人のちびっ子。
Airbus A320-200。
Airbus A320-200(JA8393)
全長37.6m、166人乗り。737-800とほぼ同じ。
A320軽々と空へ
今日は、予定通り成田空港へ行ってきます!
目的は11:20発のシンガポール行きのシンガポール航空のAirbus A380に会う事。
途中、渋滞などありませんように・・・・。
天気はあまりよくなさそう。
8時の段階で視程が1600mだった。今は4500mまで回復した。
でもDZ(霧雨)?!
風は30度から7ノットなので、R/W34か?
雲がとても低いところにあるので、心配。。。
RJAA 132330Z 03007KT 4500 -DZ BR FEW004 BKN005 18/17 Q1007 NOSIG RMK 1ST004 7ST005 A2974

コメントを残す

メールアドレスが公開されることはありません。

日本語が含まれない投稿は無視されますのでご注意ください。(スパム対策)